createdAt,value
2018-02-27T00:00:22.418Z,7.78
2018-02-27T00:03:25.770Z,6.53
2018-02-27T00:06:28.921Z,6.23
2018-02-27T00:09:32.135Z,7.63
2018-02-27T00:12:35.586Z,6.07
2018-02-27T00:15:38.834Z,6.47
2018-02-27T00:18:42.029Z,7.40
2018-02-27T00:21:45.298Z,7.73
2018-02-27T00:24:48.535Z,8.40
2018-02-27T00:27:52.356Z,8.03
2018-02-27T00:30:55.511Z,9.77
2018-02-27T00:33:58.723Z,8.20
2018-02-27T00:37:02.417Z,9.60
2018-02-27T00:40:05.673Z,9.47
2018-02-27T00:43:08.955Z,7.07
2018-02-27T00:46:12.238Z,9.27
2018-02-27T00:49:15.416Z,8.70
2018-02-27T00:52:18.670Z,9.73
2018-02-27T00:55:24.025Z,8.43
2018-02-27T00:58:27.318Z,9.50
2018-02-27T01:01:30.526Z,6.83
2018-02-27T01:04:33.732Z,7.67
2018-02-27T01:07:36.922Z,7.72
2018-02-27T01:10:40.122Z,10.13
2018-02-27T01:13:43.422Z,8.05
2018-02-27T01:16:46.695Z,9.50
2018-02-27T01:19:49.905Z,8.35
2018-02-27T01:22:53.404Z,10.18
2018-02-27T01:25:56.702Z,10.93
2018-02-27T01:28:59.984Z,7.63
2018-02-27T01:32:03.220Z,7.87
2018-02-27T01:35:06.529Z,8.63
2018-02-27T01:38:09.806Z,7.40
2018-02-27T01:41:13.002Z,10.10
2018-02-27T01:44:16.338Z,8.85
2018-02-27T01:47:19.489Z,8.88
2018-02-27T01:50:23.713Z,7.93
2018-02-27T01:53:26.934Z,11.78
2018-02-27T01:56:30.102Z,8.58
2018-02-27T01:59:33.351Z,9.83
2018-02-27T02:02:36.562Z,9.10
2018-02-27T02:05:39.869Z,7.97
2018-02-27T02:08:43.148Z,7.67
2018-02-27T02:11:46.549Z,8.80
2018-02-27T02:14:50.809Z,9.07
2018-02-27T02:17:55.726Z,10.10
2018-02-27T02:21:03.315Z,7.57
2018-02-27T02:24:06.590Z,7.43
2018-02-27T02:27:09.804Z,8.10
2018-02-27T02:30:13.184Z,11.20
2018-02-27T02:33:16.379Z,9.73
2018-02-27T02:36:19.660Z,11.25
2018-02-27T02:42:59.339Z,10.87
2018-02-27T02:46:02.481Z,11.10
2018-02-27T02:49:05.766Z,10.33
2018-02-27T02:52:08.993Z,9.33
2018-02-27T02:55:12.200Z,11.27
2018-02-27T02:58:15.462Z,10.60
2018-02-27T03:01:18.721Z,9.63
2018-02-27T03:04:22.669Z,9.33
2018-02-27T03:07:26.015Z,9.17
2018-02-27T03:10:29.269Z,11.17
2018-02-27T03:13:32.579Z,10.58
2018-02-27T03:16:35.850Z,10.07
2018-02-27T03:19:39.162Z,8.10
2018-02-27T03:22:42.384Z,7.90
2018-02-27T03:25:45.657Z,9.90
2018-02-27T03:28:48.884Z,7.87
2018-02-27T03:31:52.669Z,9.33
2018-02-27T03:34:55.990Z,9.80
2018-02-27T03:37:59.124Z,10.20
2018-02-27T03:41:02.282Z,9.90
2018-02-27T03:44:05.541Z,11.33
2018-02-27T03:47:09.304Z,10.47
2018-02-27T03:50:12.578Z,9.77
2018-02-27T03:53:15.763Z,10.03
2018-02-27T03:56:18.998Z,11.53
2018-02-27T03:59:22.679Z,8.77
2018-02-27T04:02:25.960Z,9.43
2018-02-27T04:05:29.212Z,7.47
2018-02-27T04:08:32.413Z,8.60
2018-02-27T04:11:35.649Z,8.25
2018-02-27T04:14:39.008Z,7.63
2018-02-27T04:17:42.266Z,8.23
2018-02-27T04:20:45.513Z,9.30
2018-02-27T04:27:20.156Z,10.40
2018-02-27T04:30:24.837Z,8.03
2018-02-27T04:33:28.058Z,7.93
2018-02-27T04:36:31.361Z,9.37
2018-02-27T04:39:34.655Z,10.23
2018-02-27T04:42:37.973Z,8.70
2018-02-27T04:45:41.211Z,8.03
2018-02-27T04:48:44.468Z,10.90
2018-02-27T04:55:18.274Z,8.60
2018-02-27T04:58:22.591Z,9.87
2018-02-27T05:01:25.848Z,5.90
2018-02-27T05:04:29.111Z,8.53
2018-02-27T05:07:32.335Z,8.17
2018-02-27T05:10:35.529Z,8.53
2018-02-27T05:13:38.808Z,8.53
2018-02-27T05:16:42.008Z,10.60
2018-02-27T05:19:45.310Z,8.47
2018-02-27T05:22:48.510Z,10.10
2018-02-27T05:25:51.812Z,10.87
2018-02-27T05:28:55.048Z,10.47
2018-02-27T05:31:58.294Z,11.77
2018-02-27T05:35:01.601Z,10.07
2018-02-27T05:38:04.996Z,10.77
2018-02-27T05:41:08.229Z,9.00
2018-02-27T05:44:11.416Z,10.03
2018-02-27T05:47:14.630Z,10.67
2018-02-27T05:50:17.854Z,8.47
2018-02-27T05:53:21.025Z,10.20
2018-02-27T05:56:25.142Z,11.33
2018-02-27T05:59:28.617Z,12.00
2018-02-27T06:02:31.961Z,9.37
2018-02-27T06:05:35.388Z,14.17
2018-02-27T06:08:38.605Z,13.07
2018-02-27T06:11:41.921Z,10.93
2018-02-27T06:14:45.131Z,11.97
2018-02-27T06:17:48.362Z,11.87
2018-02-27T06:20:51.622Z,11.27
2018-02-27T06:23:54.983Z,8.03
2018-02-27T06:26:58.298Z,9.20
2018-02-27T06:30:01.581Z,8.77
2018-02-27T06:33:04.876Z,12.07
2018-02-27T06:36:08.206Z,13.67
2018-02-27T06:39:11.393Z,9.57
2018-02-27T06:42:14.685Z,44.77
2018-02-27T06:45:18.231Z,16.97
2018-02-27T06:48:21.470Z,12.13
2018-02-27T06:51:24.684Z,15.97
2018-02-27T06:54:29.007Z,10.43
2018-02-27T06:57:32.224Z,13.07
2018-02-27T07:00:35.492Z,12.90
2018-02-27T07:03:38.683Z,14.07
2018-02-27T07:06:41.919Z,10.60
2018-02-27T07:09:45.185Z,10.43
2018-02-27T07:12:48.522Z,14.13
2018-02-27T07:15:51.701Z,11.07
2018-02-27T07:18:55.070Z,12.60
2018-02-27T07:21:58.382Z,10.13
2018-02-27T07:25:01.682Z,8.53
2018-02-27T07:28:06.709Z,9.00
2018-02-27T07:31:10.082Z,11.43
2018-02-27T07:34:13.295Z,9.77
2018-02-27T07:37:17.495Z,9.87
2018-02-27T07:40:20.713Z,9.30
2018-02-27T07:43:23.983Z,9.53
2018-02-27T07:46:27.158Z,10.27
2018-02-27T07:49:30.399Z,9.83
2018-02-27T07:52:33.725Z,9.83
2018-02-27T07:55:37.062Z,13.60
2018-02-27T07:58:40.235Z,9.00
2018-02-27T08:01:43.470Z,12.30
2018-02-27T08:04:46.972Z,12.40
2018-02-27T08:07:50.217Z,11.03
2018-02-27T08:10:54.619Z,18.27
2018-02-27T08:13:57.941Z,8.80
2018-02-27T08:17:01.144Z,11.47
2018-02-27T08:20:04.503Z,13.80
2018-02-27T08:23:07.783Z,10.17
2018-02-27T08:26:11.003Z,8.17
2018-02-27T08:29:14.253Z,10.27
2018-02-27T08:32:17.515Z,11.00
2018-02-27T08:35:20.801Z,13.87
2018-02-27T08:38:24.097Z,9.37
2018-02-27T08:41:27.397Z,13.77
2018-02-27T08:44:30.702Z,10.63
2018-02-27T08:47:34.002Z,21.03
2018-02-27T08:50:37.185Z,15.07
2018-02-27T08:53:40.427Z,14.93
2018-02-27T08:56:43.617Z,12.90
2018-02-27T08:59:46.807Z,10.40
2018-02-27T09:02:50.073Z,14.03
2018-02-27T09:05:53.213Z,11.40
2018-02-27T09:08:56.476Z,12.53
2018-02-27T09:11:59.759Z,11.80
2018-02-27T09:15:03.163Z,11.83
2018-02-27T09:18:06.430Z,14.30
2018-02-27T09:21:09.910Z,16.33
2018-02-27T09:24:13.099Z,15.37
2018-02-27T09:27:16.378Z,14.50
2018-02-27T09:30:19.723Z,14.37
2018-02-27T09:33:22.902Z,17.70
2018-02-27T09:36:26.154Z,15.70
2018-02-27T09:39:29.442Z,15.57
2018-02-27T09:42:32.768Z,15.50
2018-02-27T09:45:35.914Z,16.37
2018-02-27T09:48:39.253Z,19.40
2018-02-27T09:51:42.550Z,14.37
2018-02-27T09:54:45.905Z,14.07
2018-02-27T09:57:50.313Z,18.07
2018-02-27T10:00:53.486Z,21.37
2018-02-27T10:03:56.686Z,16.57
2018-02-27T10:06:59.891Z,17.87
2018-02-27T10:10:03.290Z,16.27
2018-02-27T10:13:06.547Z,16.77
2018-02-27T10:19:40.609Z,13.07
2018-02-27T10:22:44.001Z,16.67
2018-02-27T10:25:47.186Z,17.60
2018-02-27T10:28:50.380Z,13.70
2018-02-27T10:31:53.864Z,18.93
2018-02-27T10:34:57.066Z,16.50
2018-02-27T10:38:00.222Z,18.53
2018-02-27T10:41:03.462Z,19.10
2018-02-27T10:44:06.708Z,18.83
2018-02-27T10:47:10.436Z,20.08
2018-02-27T10:50:13.722Z,14.43
2018-02-27T10:53:16.935Z,15.57
2018-02-27T10:56:20.819Z,15.95
2018-02-27T10:59:24.128Z,14.83
2018-02-27T11:02:27.378Z,18.98
2018-02-27T11:05:31.310Z,14.97
2018-02-27T11:08:34.529Z,18.10
2018-02-27T11:11:44.944Z,17.20
2018-02-27T11:14:49.196Z,17.00
2018-02-27T11:17:52.506Z,13.77
2018-02-27T11:20:55.794Z,15.90
2018-02-27T11:23:59.183Z,14.60
2018-02-27T11:27:02.502Z,15.30
2018-02-27T11:30:05.720Z,12.60
2018-02-27T11:33:08.994Z,15.43
2018-02-27T11:36:12.190Z,14.27
2018-02-27T11:39:15.369Z,12.37
2018-02-27T11:42:19.054Z,12.33
2018-02-27T11:45:22.282Z,15.70
2018-02-27T11:48:25.438Z,15.40
2018-02-27T11:51:28.572Z,14.07
2018-02-27T11:54:31.744Z,15.97
2018-02-27T11:57:34.960Z,16.47
2018-02-27T12:00:38.194Z,15.80
2018-02-27T12:03:41.406Z,16.63
2018-02-27T12:06:44.696Z,18.23
2018-02-27T12:09:47.953Z,14.73
2018-02-27T12:12:51.881Z,13.47
2018-02-27T12:15:55.161Z,20.27
2018-02-27T12:18:58.386Z,18.03
2018-02-27T12:22:01.591Z,16.60
2018-02-27T12:25:04.837Z,16.70
2018-02-27T12:28:08.068Z,17.20
2018-02-27T12:31:11.329Z,17.00
2018-02-27T12:34:14.638Z,17.23
2018-02-27T12:37:17.948Z,20.93
2018-02-27T12:40:22.408Z,20.07
2018-02-27T12:43:25.645Z,18.90
2018-02-27T12:46:28.923Z,14.80
2018-02-27T12:49:32.091Z,15.27
2018-02-27T12:52:36.302Z,14.93
2018-02-27T12:55:39.586Z,12.10
2018-02-27T12:58:42.904Z,20.67
2018-02-27T13:01:46.100Z,19.33
2018-02-27T13:04:50.190Z,18.20
2018-02-27T13:07:53.418Z,16.57
2018-02-27T13:10:56.720Z,16.03
2018-02-27T13:13:59.992Z,15.73
2018-02-27T13:17:03.201Z,15.73
2018-02-27T13:20:06.834Z,15.33
2018-02-27T13:23:10.002Z,18.17
2018-02-27T13:26:13.315Z,14.30
2018-02-27T13:29:16.583Z,14.77
2018-02-27T13:32:20.529Z,17.27
2018-02-27T13:35:23.778Z,18.67
2018-02-27T13:38:27.089Z,17.43
2018-02-27T13:41:30.297Z,17.00
2018-02-27T13:44:33.503Z,18.17
2018-02-27T13:47:37.979Z,19.17
2018-02-27T13:50:41.280Z,15.00
2018-02-27T13:53:44.527Z,15.90
2018-02-27T13:56:47.937Z,18.53
2018-02-27T13:59:51.645Z,18.37
2018-02-27T14:02:54.767Z,16.07
2018-02-27T14:05:57.877Z,19.30
2018-02-27T14:09:04.584Z,19.43
2018-02-27T14:12:07.677Z,19.83
2018-02-27T14:15:13.929Z,18.67
2018-02-27T14:18:18.215Z,20.23
2018-02-27T14:21:21.324Z,16.43
2018-02-27T14:24:24.396Z,17.23
2018-02-27T14:27:27.608Z,17.70
2018-02-27T14:30:30.727Z,16.27
2018-02-27T14:33:37.405Z,19.00
2018-02-27T14:36:40.588Z,14.40
2018-02-27T14:39:43.685Z,13.73
2018-02-27T14:42:46.784Z,15.53
2018-02-27T14:45:50.049Z,16.57
2018-02-27T14:48:53.134Z,15.87
2018-02-27T14:51:56.228Z,16.37
2018-02-27T14:54:59.355Z,13.40
2018-02-27T14:58:06.178Z,16.70
2018-02-27T15:01:09.285Z,14.73
2018-02-27T15:04:12.383Z,15.60
2018-02-27T15:07:15.471Z,12.57
2018-02-27T15:10:18.576Z,16.63
2018-02-27T15:13:21.696Z,19.50
2018-02-27T15:16:24.787Z,14.57
2018-02-27T15:19:27.890Z,14.10
2018-02-27T15:22:30.975Z,16.00
2018-02-27T15:25:34.077Z,16.70
2018-02-27T15:28:37.199Z,15.17
2018-02-27T15:31:40.288Z,14.93
2018-02-27T15:34:43.375Z,11.93
2018-02-27T15:37:46.523Z,14.87
2018-02-27T15:40:49.589Z,16.47
2018-02-27T15:43:52.738Z,13.80
2018-02-27T15:46:57.358Z,18.30
2018-02-27T15:50:00.520Z,13.57
2018-02-27T15:53:03.617Z,15.00
2018-02-27T15:56:06.705Z,15.43
2018-02-27T15:59:09.801Z,14.83
2018-02-27T16:02:12.882Z,15.70
2018-02-27T16:05:16.168Z,16.33
2018-02-27T16:08:20.280Z,15.37
2018-02-27T16:11:23.367Z,12.90
2018-02-27T16:14:26.484Z,12.50
2018-02-27T16:17:29.576Z,15.77
2018-02-27T16:20:32.669Z,14.83
2018-02-27T16:23:35.772Z,14.93
2018-02-27T16:26:38.904Z,13.17
2018-02-27T16:29:42.479Z,18.20
2018-02-27T16:32:45.649Z,14.43
2018-02-27T16:35:48.863Z,17.93
2018-02-27T16:38:52.952Z,13.83
2018-02-27T16:41:56.096Z,19.87
2018-02-27T16:44:59.227Z,24.37
2018-02-27T16:48:02.398Z,18.93
2018-02-27T16:51:05.584Z,16.13
2018-02-27T16:54:08.753Z,16.80
2018-02-27T16:57:11.928Z,19.93
2018-02-27T17:00:15.648Z,18.60
2018-02-27T17:03:19.171Z,18.03
2018-02-27T17:06:22.288Z,17.50
2018-02-27T17:09:25.418Z,16.03
2018-02-27T17:12:28.548Z,15.93
2018-02-27T17:15:31.648Z,18.33
2018-02-27T17:18:34.760Z,14.73
2018-02-27T17:21:37.896Z,16.90
2018-02-27T17:24:41.137Z,18.77
2018-02-27T17:27:44.256Z,15.93
2018-02-27T17:30:47.382Z,15.80
2018-02-27T17:33:50.704Z,20.23
2018-02-27T17:36:53.861Z,18.03
2018-02-27T17:39:56.959Z,20.27
2018-02-27T17:43:00.069Z,19.57
2018-02-27T17:46:03.188Z,23.33
2018-02-27T17:49:06.264Z,21.70
2018-02-27T17:52:09.452Z,31.47
2018-02-27T17:55:12.524Z,20.83
2018-02-27T17:58:15.662Z,23.10
2018-02-27T18:01:18.809Z,25.70
2018-02-27T18:04:21.980Z,17.83
2018-02-27T18:07:25.162Z,20.43
2018-02-27T18:10:28.348Z,23.97
2018-02-27T18:13:31.539Z,27.83
2018-02-27T18:16:34.751Z,31.25
2018-02-27T18:19:37.928Z,25.50
2018-02-27T18:22:41.201Z,29.20
2018-02-27T18:25:44.404Z,20.73
2018-02-27T18:28:47.644Z,28.90
2018-02-27T18:32:01.624Z,26.47
2018-02-27T18:35:09.936Z,31.10
2018-02-27T18:38:13.135Z,27.57
2018-02-27T18:41:16.301Z,29.63
2018-02-27T18:44:29.804Z,27.87
2018-02-27T18:47:33.955Z,25.20
2018-02-27T18:50:46.712Z,26.33
2018-02-27T18:54:01.516Z,25.47
2018-02-27T18:57:04.684Z,22.27
2018-02-27T19:00:15.133Z,23.67
2018-02-27T19:03:18.388Z,30.77
2018-02-27T19:06:21.556Z,39.47
2018-02-27T19:09:24.786Z,35.50
2018-02-27T19:12:28.025Z,40.23
2018-02-27T19:15:34.293Z,27.67
2018-02-27T19:18:37.484Z,25.55
2018-02-27T19:21:40.669Z,27.10
2018-02-27T19:24:54.198Z,25.68
2018-02-27T19:28:03.226Z,27.47
2018-02-27T19:31:06.391Z,24.27
2018-02-27T19:34:09.688Z,29.73
2018-02-27T19:37:13.067Z,28.83
2018-02-27T19:40:16.205Z,29.20
2018-02-27T19:43:21.025Z,28.87
2018-02-27T19:46:24.243Z,30.53
2018-02-27T19:49:27.469Z,33.83
2018-02-27T19:52:30.762Z,32.70
2018-02-27T19:55:35.168Z,35.65
2018-02-27T19:58:38.433Z,32.20
2018-02-27T20:01:41.649Z,32.43
2018-02-27T20:04:45.178Z,33.17
2018-02-27T20:07:48.472Z,37.05
2018-02-27T20:10:51.886Z,33.00
2018-02-27T20:13:54.986Z,34.93
2018-02-27T20:16:58.176Z,31.93
2018-02-27T20:20:01.541Z,32.25
2018-02-27T20:23:08.832Z,29.82
2018-02-27T20:26:11.992Z,26.60
2018-02-27T20:29:21.804Z,29.52
2018-02-27T20:32:24.987Z,28.90
2018-02-27T20:35:28.123Z,26.00
2018-02-27T20:38:35.417Z,26.83
2018-02-27T20:41:38.612Z,29.55
2018-02-27T20:44:41.993Z,29.60
2018-02-27T20:47:45.216Z,30.83
2018-02-27T20:50:48.589Z,30.00
2018-02-27T20:53:51.700Z,30.67
2018-02-27T20:56:54.848Z,30.80
2018-02-27T20:59:58.246Z,34.63
2018-02-27T21:03:01.389Z,35.52
2018-02-27T21:06:04.479Z,36.17
2018-02-27T21:09:08.060Z,29.02
2018-02-27T21:12:11.231Z,31.70
2018-02-27T21:15:14.485Z,31.40
2018-02-27T21:18:19.715Z,33.53
2018-02-27T21:21:26.709Z,36.10
2018-02-27T21:24:35.173Z,32.50
2018-02-27T21:27:45.513Z,33.73
2018-02-27T21:30:50.936Z,39.30
2018-02-27T21:33:58.788Z,35.97
2018-02-27T21:37:02.908Z,41.65
2018-02-27T21:40:11.617Z,41.90
2018-02-27T21:43:14.833Z,51.50
2018-02-27T21:46:27.723Z,48.30
2018-02-27T21:49:31.923Z,32.10
2018-02-27T21:52:35.381Z,32.67
2018-02-27T21:55:38.575Z,33.08
2018-02-27T21:58:41.692Z,30.70
2018-02-27T22:01:45.880Z,35.33
2018-02-27T22:04:49.092Z,29.37
2018-02-27T22:08:02.168Z,24.57
2018-02-27T22:11:05.356Z,27.83
2018-02-27T22:14:08.600Z,22.53
2018-02-27T22:17:28.339Z,23.83
2018-02-27T22:20:31.533Z,24.07
2018-02-27T22:23:35.685Z,22.33
2018-02-27T22:26:38.949Z,21.53
2018-02-27T22:29:42.145Z,26.83
2018-02-27T22:32:46.303Z,29.80
2018-02-27T22:35:49.561Z,23.73
2018-02-27T22:38:52.761Z,24.13
2018-02-27T22:41:55.976Z,26.40
2018-02-27T22:44:59.212Z,22.93
2018-02-27T22:48:02.407Z,20.23
2018-02-27T22:51:13.273Z,19.20
2018-02-27T22:54:17.483Z,18.10
2018-02-27T22:57:20.722Z,22.00
2018-02-27T23:00:32.867Z,31.83
2018-02-27T23:03:44.096Z,23.97
2018-02-27T23:06:48.548Z,25.20
2018-02-27T23:09:51.774Z,27.07
2018-02-27T23:12:54.965Z,23.33
2018-02-27T23:15:59.112Z,29.60
2018-02-27T23:19:02.327Z,21.63
2018-02-27T23:22:05.465Z,22.87
2018-02-27T23:25:12.813Z,24.80
2018-02-27T23:28:17.474Z,24.80
2018-02-27T23:31:26.265Z,23.12
2018-02-27T23:34:53.616Z,22.20
2018-02-27T23:37:57.784Z,19.77
2018-02-27T23:41:01.924Z,20.88
2018-02-27T23:44:05.037Z,21.55
2018-02-27T23:47:15.309Z,19.67
2018-02-27T23:50:18.541Z,23.23
2018-02-27T23:53:21.688Z,19.43
2018-02-27T23:56:24.870Z,17.57
2018-02-27T23:59:30.094Z,19.60
